sensor_id;sensor_type;location;lat;lon;timestamp;P1;durP1;ratioP1;P2;durP2;ratioP2
64936;SDS011;51452;47.698;19.050;2023-10-13T00:00:07;9.70;;;4.28;;
64936;SDS011;51452;47.698;19.050;2023-10-13T00:02:50;12.40;;;5.00;;
64936;SDS011;51452;47.698;19.050;2023-10-13T00:05:17;10.13;;;4.80;;
64936;SDS011;51452;47.698;19.050;2023-10-13T00:07:43;12.88;;;5.05;;
64936;SDS011;51452;47.698;19.050;2023-10-13T00:10:08;9.63;;;6.22;;
64936;SDS011;51452;47.698;19.050;2023-10-13T00:12:35;10.38;;;4.82;;
64936;SDS011;51452;47.698;19.050;2023-10-13T00:15:03;16.27;;;4.57;;
64936;SDS011;51452;47.698;19.050;2023-10-13T00:17:29;9.50;;;4.38;;
64936;SDS011;51452;47.698;19.050;2023-10-13T00:19:57;15.55;;;4.13;;
64936;SDS011;51452;47.698;19.050;2023-10-13T00:22:25;9.63;;;3.72;;
64936;SDS011;51452;47.698;19.050;2023-10-13T00:24:55;8.52;;;3.60;;
64936;SDS011;51452;47.698;19.050;2023-10-13T00:27:24;8.32;;;4.32;;
64936;SDS011;51452;47.698;19.050;2023-10-13T00:30:02;14.70;;;4.60;;
64936;SDS011;51452;47.698;19.050;2023-10-13T00:32:49;10.15;;;4.95;;
64936;SDS011;51452;47.698;19.050;2023-10-13T00:35:20;15.30;;;4.63;;
64936;SDS011;51452;47.698;19.050;2023-10-13T00:38:02;9.32;;;4.07;;
64936;SDS011;51452;47.698;19.050;2023-10-13T00:40:38;8.50;;;4.50;;
64936;SDS011;51452;47.698;19.050;2023-10-13T00:43:07;12.13;;;4.78;;
64936;SDS011;51452;47.698;19.050;2023-10-13T00:45:45;11.57;;;4.47;;
64936;SDS011;51452;47.698;19.050;2023-10-13T00:48:24;11.48;;;5.03;;
64936;SDS011;51452;47.698;19.050;2023-10-13T00:51:03;8.95;;;4.25;;
64936;SDS011;51452;47.698;19.050;2023-10-13T00:53:32;11.05;;;4.47;;
64936;SDS011;51452;47.698;19.050;2023-10-13T00:56:05;9.40;;;4.63;;
64936;SDS011;51452;47.698;19.050;2023-10-13T00:58:43;8.73;;;3.95;;
64936;SDS011;51452;47.698;19.050;2023-10-13T01:01:11;8.02;;;3.90;;
64936;SDS011;51452;47.698;19.050;2023-10-13T01:03:46;8.68;;;4.00;;
64936;SDS011;51452;47.698;19.050;2023-10-13T01:06:13;8.15;;;4.00;;
64936;SDS011;51452;47.698;19.050;2023-10-13T01:08:44;8.75;;;3.85;;
64936;SDS011;51452;47.698;19.050;2023-10-13T01:11:18;7.28;;;3.70;;
64936;SDS011;51452;47.698;19.050;2023-10-13T01:13:44;7.68;;;4.07;;
64936;SDS011;51452;47.698;19.050;2023-10-13T01:16:16;6.47;;;3.42;;
64936;SDS011;51452;47.698;19.050;2023-10-13T01:18:42;8.90;;;4.00;;
64936;SDS011;51452;47.698;19.050;2023-10-13T01:21:13;10.82;;;3.80;;
64936;SDS011;51452;47.698;19.050;2023-10-13T01:23:43;11.00;;;3.72;;
64936;SDS011;51452;47.698;19.050;2023-10-13T01:26:09;7.25;;;3.53;;
64936;SDS011;51452;47.698;19.050;2023-10-13T01:28:37;9.95;;;4.40;;
64936;SDS011;51452;47.698;19.050;2023-10-13T01:31:09;10.05;;;4.18;;
64936;SDS011;51452;47.698;19.050;2023-10-13T01:33:37;9.45;;;4.30;;
64936;SDS011;51452;47.698;19.050;2023-10-13T01:36:03;8.30;;;4.03;;
64936;SDS011;51452;47.698;19.050;2023-10-13T01:38:32;10.27;;;3.95;;
64936;SDS011;51452;47.698;19.050;2023-10-13T01:40:58;7.93;;;3.85;;
64936;SDS011;51452;47.698;19.050;2023-10-13T01:43:24;9.85;;;4.22;;
64936;SDS011;51452;47.698;19.050;2023-10-13T01:45:49;10.13;;;4.18;;
64936;SDS011;51452;47.698;19.050;2023-10-13T01:48:15;9.93;;;4.10;;
64936;SDS011;51452;47.698;19.050;2023-10-13T01:50:43;7.95;;;3.97;;
64936;SDS011;51452;47.698;19.050;2023-10-13T01:53:13;9.57;;;4.00;;
64936;SDS011;51452;47.698;19.050;2023-10-13T01:55:42;10.35;;;4.10;;
64936;SDS011;51452;47.698;19.050;2023-10-13T01:58:11;10.60;;;5.00;;
64936;SDS011;51452;47.698;19.050;2023-10-13T02:00:41;8.70;;;4.38;;
64936;SDS011;51452;47.698;19.050;2023-10-13T02:03:08;8.63;;;3.70;;
64936;SDS011;51452;47.698;19.050;2023-10-13T02:05:41;9.80;;;3.90;;
64936;SDS011;51452;47.698;19.050;2023-10-13T02:08:14;9.57;;;4.45;;
64936;SDS011;51452;47.698;19.050;2023-10-13T02:10:48;9.07;;;4.15;;
64936;SDS011;51452;47.698;19.050;2023-10-13T02:13:15;9.63;;;4.40;;
64936;SDS011;51452;47.698;19.050;2023-10-13T02:15:46;11.43;;;4.35;;
64936;SDS011;51452;47.698;19.050;2023-10-13T02:18:17;13.38;;;4.85;;
64936;SDS011;51452;47.698;19.050;2023-10-13T02:20:54;11.80;;;5.22;;
64936;SDS011;51452;47.698;19.050;2023-10-13T02:23:22;10.48;;;4.25;;
64936;SDS011;51452;47.698;19.050;2023-10-13T02:25:48;7.15;;;4.13;;
64936;SDS011;51452;47.698;19.050;2023-10-13T02:28:17;8.48;;;4.22;;
64936;SDS011;51452;47.698;19.050;2023-10-13T02:30:46;10.05;;;4.40;;
64936;SDS011;51452;47.698;19.050;2023-10-13T02:33:15;6.60;;;4.20;;
64936;SDS011;51452;47.698;19.050;2023-10-13T02:35:47;11.35;;;4.75;;
64936;SDS011;51452;47.698;19.050;2023-10-13T02:38:18;9.80;;;5.45;;
64936;SDS011;51452;47.698;19.050;2023-10-13T02:40:52;10.40;;;4.97;;
64936;SDS011;51452;47.698;19.050;2023-10-13T02:43:19;12.25;;;5.50;;
64936;SDS011;51452;47.698;19.050;2023-10-13T02:45:53;15.38;;;5.72;;
64936;SDS011;51452;47.698;19.050;2023-10-13T02:48:23;9.52;;;4.63;;
64936;SDS011;51452;47.698;19.050;2023-10-13T02:50:55;8.63;;;4.15;;
64936;SDS011;51452;47.698;19.050;2023-10-13T02:53:22;11.55;;;3.78;;
64936;SDS011;51452;47.698;19.050;2023-10-13T02:55:53;9.20;;;3.70;;
64936;SDS011;51452;47.698;19.050;2023-10-13T02:58:32;11.80;;;4.10;;
64936;SDS011;51452;47.698;19.050;2023-10-13T03:01:07;13.02;;;5.43;;
64936;SDS011;51452;47.698;19.050;2023-10-13T03:03:47;14.75;;;4.30;;
64936;SDS011;51452;47.698;19.050;2023-10-13T03:06:16;9.30;;;3.85;;
64936;SDS011;51452;47.698;19.050;2023-10-13T03:08:42;9.85;;;3.83;;
64936;SDS011;51452;47.698;19.050;2023-10-13T03:11:09;11.35;;;4.32;;
64936;SDS011;51452;47.698;19.050;2023-10-13T03:13:35;12.88;;;5.07;;
64936;SDS011;51452;47.698;19.050;2023-10-13T03:16:01;12.00;;;5.30;;
64936;SDS011;51452;47.698;19.050;2023-10-13T03:18:36;9.93;;;5.28;;
64936;SDS011;51452;47.698;19.050;2023-10-13T03:21:01;15.90;;;5.85;;
64936;SDS011;51452;47.698;19.050;2023-10-13T03:23:27;10.55;;;5.90;;
64936;SDS011;51452;47.698;19.050;2023-10-13T03:25:53;10.02;;;5.55;;
64936;SDS011;51452;47.698;19.050;2023-10-13T03:28:20;14.10;;;6.45;;
64936;SDS011;51452;47.698;19.050;2023-10-13T03:30:50;13.77;;;6.47;;
64936;SDS011;51452;47.698;19.050;2023-10-13T03:33:17;14.93;;;6.95;;
64936;SDS011;51452;47.698;19.050;2023-10-13T03:35:51;14.70;;;7.43;;
64936;SDS011;51452;47.698;19.050;2023-10-13T03:38:19;15.57;;;8.65;;
64936;SDS011;51452;47.698;19.050;2023-10-13T03:40:46;18.35;;;8.80;;
64936;SDS011;51452;47.698;19.050;2023-10-13T03:43:21;19.40;;;8.90;;
64936;SDS011;51452;47.698;19.050;2023-10-13T03:45:47;12.90;;;7.03;;
64936;SDS011;51452;47.698;19.050;2023-10-13T03:48:17;19.05;;;8.60;;
64936;SDS011;51452;47.698;19.050;2023-10-13T03:50:50;15.80;;;8.73;;
64936;SDS011;51452;47.698;19.050;2023-10-13T03:53:31;18.58;;;8.35;;
64936;SDS011;51452;47.698;19.050;2023-10-13T03:56:01;13.05;;;7.95;;
64936;SDS011;51452;47.698;19.050;2023-10-13T03:58:37;13.70;;;8.63;;
64936;SDS011;51452;47.698;19.050;2023-10-13T04:01:12;20.05;;;8.90;;
64936;SDS011;51452;47.698;19.050;2023-10-13T04:03:42;16.35;;;9.18;;
64936;SDS011;51452;47.698;19.050;2023-10-13T04:06:24;14.50;;;9.88;;
64936;SDS011;51452;47.698;19.050;2023-10-13T04:09:08;16.60;;;8.50;;
64936;SDS011;51452;47.698;19.050;2023-10-13T04:11:52;13.00;;;7.53;;
64936;SDS011;51452;47.698;19.050;2023-10-13T04:14:34;16.75;;;8.35;;
64936;SDS011;51452;47.698;19.050;2023-10-13T04:17:19;18.40;;;8.05;;
64936;SDS011;51452;47.698;19.050;2023-10-13T04:19:57;14.23;;;6.05;;
64936;SDS011;51452;47.698;19.050;2023-10-13T04:22:36;13.70;;;6.25;;
64936;SDS011;51452;47.698;19.050;2023-10-13T04:33:20;10.77;;;5.97;;
64936;SDS011;51452;47.698;19.050;2023-10-13T04:38:49;10.77;;;6.10;;
64936;SDS011;51452;47.698;19.050;2023-10-13T04:41:29;10.60;;;5.78;;
64936;SDS011;51452;47.698;19.050;2023-10-13T04:44:22;14.48;;;6.47;;
64936;SDS011;51452;47.698;19.050;2023-10-13T04:47:05;13.13;;;5.30;;
64936;SDS011;51452;47.698;19.050;2023-10-13T04:49:40;12.57;;;5.47;;
64936;SDS011;51452;47.698;19.050;2023-10-13T04:52:08;8.68;;;4.75;;
64936;SDS011;51452;47.698;19.050;2023-10-13T04:54:43;11.77;;;4.95;;
64936;SDS011;51452;47.698;19.050;2023-10-13T04:57:16;10.35;;;5.15;;
64936;SDS011;51452;47.698;19.050;2023-10-13T04:59:48;8.65;;;4.85;;
64936;SDS011;51452;47.698;19.050;2023-10-13T05:02:36;11.13;;;5.50;;
64936;SDS011;51452;47.698;19.050;2023-10-13T05:05:27;9.23;;;5.00;;
64936;SDS011;51452;47.698;19.050;2023-10-13T05:08:11;10.25;;;4.95;;
64936;SDS011;51452;47.698;19.050;2023-10-13T05:10:56;13.57;;;5.75;;
64936;SDS011;51452;47.698;19.050;2023-10-13T05:14:00;9.65;;;4.70;;
64936;SDS011;51452;47.698;19.050;2023-10-13T05:16:44;11.80;;;4.77;;
64936;SDS011;51452;47.698;19.050;2023-10-13T05:19:28;6.53;;;4.40;;
64936;SDS011;51452;47.698;19.050;2023-10-13T05:22:12;7.40;;;4.35;;
64936;SDS011;51452;47.698;19.050;2023-10-13T05:24:56;6.95;;;4.55;;
64936;SDS011;51452;47.698;19.050;2023-10-13T05:27:40;6.93;;;3.97;;
64936;SDS011;51452;47.698;19.050;2023-10-13T05:30:24;8.47;;;4.13;;
64936;SDS011;51452;47.698;19.050;2023-10-13T05:33:08;8.93;;;4.28;;
64936;SDS011;51452;47.698;19.050;2023-10-13T05:35:53;9.27;;;3.30;;
64936;SDS011;51452;47.698;19.050;2023-10-13T05:38:37;9.93;;;3.63;;
64936;SDS011;51452;47.698;19.050;2023-10-13T05:41:21;7.75;;;4.03;;
64936;SDS011;51452;47.698;19.050;2023-10-13T05:44:05;7.65;;;3.42;;
64936;SDS011;51452;47.698;19.050;2023-10-13T05:46:49;6.90;;;3.33;;
64936;SDS011;51452;47.698;19.050;2023-10-13T05:49:35;7.65;;;3.83;;
64936;SDS011;51452;47.698;19.050;2023-10-13T05:52:28;8.57;;;4.50;;
64936;SDS011;51452;47.698;19.050;2023-10-13T05:55:12;11.52;;;4.25;;
64936;SDS011;51452;47.698;19.050;2023-10-13T05:57:56;7.93;;;3.80;;
64936;SDS011;51452;47.698;19.050;2023-10-13T06:00:51;8.13;;;4.30;;
64936;SDS011;51452;47.698;19.050;2023-10-13T06:03:34;9.82;;;4.30;;
64936;SDS011;51452;47.698;19.050;2023-10-13T06:06:18;7.53;;;4.15;;
64936;SDS011;51452;47.698;19.050;2023-10-13T06:09:02;8.07;;;3.78;;
64936;SDS011;51452;47.698;19.050;2023-10-13T06:11:46;9.50;;;4.10;;
64936;SDS011;51452;47.698;19.050;2023-10-13T06:14:30;9.48;;;4.18;;
64936;SDS011;51452;47.698;19.050;2023-10-13T06:17:14;8.93;;;3.60;;
64936;SDS011;51452;47.698;19.050;2023-10-13T06:19:58;8.80;;;4.32;;
64936;SDS011;51452;47.698;19.050;2023-10-13T06:22:42;7.43;;;4.30;;
64936;SDS011;51452;47.698;19.050;2023-10-13T06:25:26;11.48;;;4.95;;
64936;SDS011;51452;47.698;19.050;2023-10-13T06:28:10;8.00;;;4.40;;
64936;SDS011;51452;47.698;19.050;2023-10-13T06:30:55;9.95;;;4.65;;
64936;SDS011;51452;47.698;19.050;2023-10-13T06:33:21;9.05;;;4.07;;
64936;SDS011;51452;47.698;19.050;2023-10-13T06:35:54;9.95;;;4.38;;
64936;SDS011;51452;47.698;19.050;2023-10-13T06:38:22;10.70;;;3.80;;
64936;SDS011;51452;47.698;19.050;2023-10-13T06:40:48;10.70;;;4.22;;
64936;SDS011;51452;47.698;19.050;2023-10-13T06:43:16;10.05;;;4.13;;
64936;SDS011;51452;47.698;19.050;2023-10-13T06:45:45;10.75;;;4.30;;
64936;SDS011;51452;47.698;19.050;2023-10-13T06:48:25;8.70;;;3.95;;
64936;SDS011;51452;47.698;19.050;2023-10-13T06:50:51;10.57;;;4.32;;
64936;SDS011;51452;47.698;19.050;2023-10-13T06:53:20;10.57;;;4.30;;
64936;SDS011;51452;47.698;19.050;2023-10-13T06:55:46;13.80;;;4.82;;
64936;SDS011;51452;47.698;19.050;2023-10-13T06:58:13;13.00;;;4.38;;
64936;SDS011;51452;47.698;19.050;2023-10-13T07:00:42;24.40;;;5.50;;
64936;SDS011;51452;47.698;19.050;2023-10-13T07:03:24;15.40;;;4.63;;
64936;SDS011;51452;47.698;19.050;2023-10-13T07:05:50;13.50;;;4.63;;
64936;SDS011;51452;47.698;19.050;2023-10-13T07:08:17;7.35;;;4.32;;
64936;SDS011;51452;47.698;19.050;2023-10-13T07:10:51;9.25;;;4.45;;
64936;SDS011;51452;47.698;19.050;2023-10-13T07:13:30;9.45;;;3.95;;
64936;SDS011;51452;47.698;19.050;2023-10-13T07:16:07;8.55;;;3.83;;
64936;SDS011;51452;47.698;19.050;2023-10-13T07:18:38;8.88;;;3.97;;
64936;SDS011;51452;47.698;19.050;2023-10-13T07:21:26;10.85;;;4.45;;
64936;SDS011;51452;47.698;19.050;2023-10-13T07:23:58;9.10;;;4.10;;
64936;SDS011;51452;47.698;19.050;2023-10-13T07:26:33;7.88;;;4.50;;
64936;SDS011;51452;47.698;19.050;2023-10-13T07:29:02;9.75;;;4.45;;
64936;SDS011;51452;47.698;19.050;2023-10-13T07:31:28;8.43;;;4.10;;
64936;SDS011;51452;47.698;19.050;2023-10-13T07:33:53;13.40;;;4.00;;
64936;SDS011;51452;47.698;19.050;2023-10-13T07:36:29;9.02;;;3.85;;
64936;SDS011;51452;47.698;19.050;2023-10-13T07:39:04;6.10;;;3.45;;
64936;SDS011;51452;47.698;19.050;2023-10-13T07:41:50;7.82;;;3.50;;
64936;SDS011;51452;47.698;19.050;2023-10-13T07:44:22;9.00;;;3.50;;
64936;SDS011;51452;47.698;19.050;2023-10-13T07:46:53;7.68;;;3.80;;
64936;SDS011;51452;47.698;19.050;2023-10-13T07:49:31;9.27;;;5.32;;
64936;SDS011;51452;47.698;19.050;2023-10-13T07:52:01;11.57;;;7.07;;
64936;SDS011;51452;47.698;19.050;2023-10-13T07:57:14;12.70;;;8.05;;
64936;SDS011;51452;47.698;19.050;2023-10-13T07:59:39;14.98;;;9.07;;
64936;SDS011;51452;47.698;19.050;2023-10-13T08:02:12;17.73;;;9.90;;
64936;SDS011;51452;47.698;19.050;2023-10-13T08:04:40;20.05;;;9.95;;
64936;SDS011;51452;47.698;19.050;2023-10-13T08:07:06;20.80;;;10.23;;
64936;SDS011;51452;47.698;19.050;2023-10-13T08:09:40;18.58;;;11.18;;
64936;SDS011;51452;47.698;19.050;2023-10-13T08:12:06;16.63;;;10.40;;
64936;SDS011;51452;47.698;19.050;2023-10-13T08:14:37;16.77;;;9.95;;
64936;SDS011;51452;47.698;19.050;2023-10-13T08:17:08;16.58;;;11.32;;
64936;SDS011;51452;47.698;19.050;2023-10-13T08:19:39;21.90;;;11.02;;
64936;SDS011;51452;47.698;19.050;2023-10-13T08:22:05;25.38;;;11.80;;
64936;SDS011;51452;47.698;19.050;2023-10-13T08:24:40;19.25;;;11.63;;
64936;SDS011;51452;47.698;19.050;2023-10-13T08:27:06;21.05;;;11.43;;
64936;SDS011;51452;47.698;19.050;2023-10-13T08:29:44;19.50;;;11.18;;
64936;SDS011;51452;47.698;19.050;2023-10-13T08:32:20;21.05;;;11.10;;
64936;SDS011;51452;47.698;19.050;2023-10-13T08:34:52;15.95;;;11.25;;
64936;SDS011;51452;47.698;19.050;2023-10-13T08:37:30;18.77;;;10.82;;
64936;SDS011;51452;47.698;19.050;2023-10-13T08:40:11;20.58;;;11.45;;
64936;SDS011;51452;47.698;19.050;2023-10-13T08:42:57;16.00;;;10.40;;
64936;SDS011;51452;47.698;19.050;2023-10-13T08:45:28;14.60;;;10.00;;
64936;SDS011;51452;47.698;19.050;2023-10-13T08:47:55;14.43;;;10.27;;
64936;SDS011;51452;47.698;19.050;2023-10-13T08:50:34;22.15;;;11.82;;
64936;SDS011;51452;47.698;19.050;2023-10-13T08:53:23;19.42;;;10.75;;
64936;SDS011;51452;47.698;19.050;2023-10-13T08:56:02;18.73;;;10.63;;
64936;SDS011;51452;47.698;19.050;2023-10-13T08:58:32;16.75;;;10.65;;
64936;SDS011;51452;47.698;19.050;2023-10-13T09:01:25;22.08;;;11.27;;
64936;SDS011;51452;47.698;19.050;2023-10-13T09:04:14;22.90;;;11.88;;
64936;SDS011;51452;47.698;19.050;2023-10-13T09:06:47;21.95;;;11.85;;
64936;SDS011;51452;47.698;19.050;2023-10-13T09:09:28;25.33;;;11.15;;
64936;SDS011;51452;47.698;19.050;2023-10-13T09:12:22;23.13;;;11.15;;
64936;SDS011;51452;47.698;19.050;2023-10-13T09:17:31;20.73;;;10.40;;
64936;SDS011;51452;47.698;19.050;2023-10-13T09:22:47;17.75;;;9.43;;
64936;SDS011;51452;47.698;19.050;2023-10-13T09:25:32;13.93;;;8.98;;
64936;SDS011;51452;47.698;19.050;2023-10-13T09:28:00;18.65;;;9.50;;
64936;SDS011;51452;47.698;19.050;2023-10-13T09:30:42;15.18;;;9.35;;
64936;SDS011;51452;47.698;19.050;2023-10-13T09:33:11;16.08;;;8.77;;
64936;SDS011;51452;47.698;19.050;2023-10-13T09:35:45;14.52;;;8.80;;
64936;SDS011;51452;47.698;19.050;2023-10-13T09:38:15;16.88;;;8.85;;
64936;SDS011;51452;47.698;19.050;2023-10-13T09:40:42;12.73;;;8.48;;
64936;SDS011;51452;47.698;19.050;2023-10-13T09:43:22;14.98;;;7.40;;
64936;SDS011;51452;47.698;19.050;2023-10-13T09:45:49;15.27;;;6.50;;
64936;SDS011;51452;47.698;19.050;2023-10-13T09:48:42;13.30;;;6.35;;
64936;SDS011;51452;47.698;19.050;2023-10-13T09:51:15;14.75;;;6.70;;
64936;SDS011;51452;47.698;19.050;2023-10-13T09:53:56;14.02;;;7.90;;
64936;SDS011;51452;47.698;19.050;2023-10-13T09:56:28;14.60;;;7.35;;
64936;SDS011;51452;47.698;19.050;2023-10-13T10:01:33;18.10;;;7.03;;
64936;SDS011;51452;47.698;19.050;2023-10-13T10:04:10;14.10;;;6.60;;
64936;SDS011;51452;47.698;19.050;2023-10-13T10:06:36;14.85;;;6.88;;
64936;SDS011;51452;47.698;19.050;2023-10-13T10:09:09;10.68;;;6.38;;
64936;SDS011;51452;47.698;19.050;2023-10-13T10:17:10;11.30;;;4.88;;
64936;SDS011;51452;47.698;19.050;2023-10-13T10:19:48;11.98;;;5.90;;
64936;SDS011;51452;47.698;19.050;2023-10-13T10:25:28;11.18;;;5.60;;
64936;SDS011;51452;47.698;19.050;2023-10-13T10:27:59;12.80;;;7.18;;
64936;SDS011;51452;47.698;19.050;2023-10-13T10:30:28;19.20;;;10.35;;
64936;SDS011;51452;47.698;19.050;2023-10-13T10:32:55;17.73;;;6.80;;
64936;SDS011;51452;47.698;19.050;2023-10-13T10:35:24;14.82;;;6.65;;
64936;SDS011;51452;47.698;19.050;2023-10-13T10:38:18;14.20;;;6.72;;
64936;SDS011;51452;47.698;19.050;2023-10-13T10:41:01;17.35;;;8.80;;
64936;SDS011;51452;47.698;19.050;2023-10-13T10:43:30;35.05;;;18.65;;
64936;SDS011;51452;47.698;19.050;2023-10-13T10:46:14;23.90;;;12.75;;
64936;SDS011;51452;47.698;19.050;2023-10-13T10:48:43;18.63;;;9.40;;
64936;SDS011;51452;47.698;19.050;2023-10-13T10:51:10;21.35;;;11.10;;
64936;SDS011;51452;47.698;19.050;2023-10-13T10:53:49;23.48;;;13.10;;
64936;SDS011;51452;47.698;19.050;2023-10-13T10:56:17;21.70;;;11.25;;
64936;SDS011;51452;47.698;19.050;2023-10-13T10:58:53;21.02;;;10.10;;
64936;SDS011;51452;47.698;19.050;2023-10-13T11:01:26;18.00;;;9.00;;
64936;SDS011;51452;47.698;19.050;2023-10-13T11:04:12;15.68;;;8.63;;
64936;SDS011;51452;47.698;19.050;2023-10-13T11:09:13;23.55;;;12.40;;
64936;SDS011;51452;47.698;19.050;2023-10-13T11:14:39;23.33;;;11.73;;
64936;SDS011;51452;47.698;19.050;2023-10-13T11:17:05;24.00;;;10.95;;
64936;SDS011;51452;47.698;19.050;2023-10-13T11:19:45;14.70;;;6.85;;
64936;SDS011;51452;47.698;19.050;2023-10-13T11:22:15;14.10;;;6.88;;
64936;SDS011;51452;47.698;19.050;2023-10-13T11:25:07;15.75;;;6.80;;
64936;SDS011;51452;47.698;19.050;2023-10-13T11:27:40;12.50;;;6.70;;
64936;SDS011;51452;47.698;19.050;2023-10-13T11:30:15;18.40;;;8.63;;
64936;SDS011;51452;47.698;19.050;2023-10-13T11:32:45;24.05;;;7.85;;
64936;SDS011;51452;47.698;19.050;2023-10-13T11:35:11;17.33;;;7.32;;
64936;SDS011;51452;47.698;19.050;2023-10-13T11:37:47;21.20;;;8.65;;
64936;SDS011;51452;47.698;19.050;2023-10-13T11:40:21;14.68;;;7.28;;
64936;SDS011;51452;47.698;19.050;2023-10-13T11:43:08;17.50;;;7.82;;
64936;SDS011;51452;47.698;19.050;2023-10-13T11:45:40;16.08;;;8.38;;
64936;SDS011;51452;47.698;19.050;2023-10-13T11:48:37;16.15;;;8.05;;
64936;SDS011;51452;47.698;19.050;2023-10-13T11:51:04;16.05;;;8.70;;
64936;SDS011;51452;47.698;19.050;2023-10-13T11:53:34;21.88;;;8.65;;
64936;SDS011;51452;47.698;19.050;2023-10-13T11:56:00;19.77;;;9.30;;
64936;SDS011;51452;47.698;19.050;2023-10-13T11:58:26;21.25;;;9.50;;
64936;SDS011;51452;47.698;19.050;2023-10-13T12:00:54;19.95;;;8.98;;
64936;SDS011;51452;47.698;19.050;2023-10-13T12:03:32;18.80;;;8.57;;
64936;SDS011;51452;47.698;19.050;2023-10-13T12:06:16;16.65;;;9.85;;
64936;SDS011;51452;47.698;19.050;2023-10-13T12:08:58;22.27;;;9.35;;
64936;SDS011;51452;47.698;19.050;2023-10-13T12:11:37;21.58;;;9.85;;
64936;SDS011;51452;47.698;19.050;2023-10-13T12:14:06;18.48;;;8.77;;
64936;SDS011;51452;47.698;19.050;2023-10-13T12:16:52;19.17;;;9.07;;
64936;SDS011;51452;47.698;19.050;2023-10-13T12:19:22;20.60;;;10.02;;
64936;SDS011;51452;47.698;19.050;2023-10-13T12:21:48;20.52;;;8.93;;
64936;SDS011;51452;47.698;19.050;2023-10-13T12:24:24;22.45;;;10.00;;
64936;SDS011;51452;47.698;19.050;2023-10-13T12:27:00;17.63;;;9.75;;
64936;SDS011;51452;47.698;19.050;2023-10-13T12:29:26;31.50;;;13.30;;
64936;SDS011;51452;47.698;19.050;2023-10-13T12:31:55;23.98;;;11.52;;
64936;SDS011;51452;47.698;19.050;2023-10-13T12:34:35;21.88;;;10.88;;
64936;SDS011;51452;47.698;19.050;2023-10-13T12:37:19;25.73;;;13.23;;
64936;SDS011;51452;47.698;19.050;2023-10-13T12:40:04;26.60;;;11.75;;
64936;SDS011;51452;47.698;19.050;2023-10-13T12:42:52;27.73;;;12.10;;
64936;SDS011;51452;47.698;19.050;2023-10-13T12:48:24;23.27;;;11.52;;
64936;SDS011;51452;47.698;19.050;2023-10-13T12:51:08;21.05;;;9.90;;
64936;SDS011;51452;47.698;19.050;2023-10-13T12:54:09;20.20;;;9.98;;
64936;SDS011;51452;47.698;19.050;2023-10-13T12:56:48;23.95;;;11.43;;
64936;SDS011;51452;47.698;19.050;2023-10-13T12:59:13;26.73;;;10.38;;
64936;SDS011;51452;47.698;19.050;2023-10-13T13:01:39;22.48;;;10.82;;
64936;SDS011;51452;47.698;19.050;2023-10-13T13:04:11;18.90;;;10.35;;
64936;SDS011;51452;47.698;19.050;2023-10-13T13:06:43;20.42;;;9.10;;
64936;SDS011;51452;47.698;19.050;2023-10-13T13:09:09;20.85;;;9.18;;
64936;SDS011;51452;47.698;19.050;2023-10-13T13:11:35;22.02;;;8.48;;
64936;SDS011;51452;47.698;19.050;2023-10-13T13:14:05;24.65;;;10.32;;
64936;SDS011;51452;47.698;19.050;2023-10-13T13:16:34;23.60;;;9.52;;
64936;SDS011;51452;47.698;19.050;2023-10-13T13:19:00;23.35;;;7.95;;
64936;SDS011;51452;47.698;19.050;2023-10-13T13:21:35;20.92;;;8.27;;
64936;SDS011;51452;47.698;19.050;2023-10-13T13:24:03;23.67;;;8.75;;
64936;SDS011;51452;47.698;19.050;2023-10-13T13:26:30;20.08;;;8.43;;
64936;SDS011;51452;47.698;19.050;2023-10-13T13:28:58;25.80;;;8.93;;
64936;SDS011;51452;47.698;19.050;2023-10-13T13:31:24;16.48;;;9.30;;
64936;SDS011;51452;47.698;19.050;2023-10-13T13:33:54;18.55;;;8.98;;
64936;SDS011;51452;47.698;19.050;2023-10-13T13:36:20;29.50;;;9.27;;
64936;SDS011;51452;47.698;19.050;2023-10-13T13:38:47;22.30;;;8.43;;
64936;SDS011;51452;47.698;19.050;2023-10-13T13:41:19;22.33;;;8.43;;
64936;SDS011;51452;47.698;19.050;2023-10-13T13:43:48;20.30;;;8.63;;
64936;SDS011;51452;47.698;19.050;2023-10-13T13:46:15;22.10;;;8.00;;
64936;SDS011;51452;47.698;19.050;2023-10-13T13:48:41;21.02;;;8.18;;
64936;SDS011;51452;47.698;19.050;2023-10-13T13:51:07;18.55;;;8.60;;
64936;SDS011;51452;47.698;19.050;2023-10-13T13:53:42;21.15;;;8.50;;
64936;SDS011;51452;47.698;19.050;2023-10-13T13:56:13;16.55;;;8.00;;
64936;SDS011;51452;47.698;19.050;2023-10-13T13:58:46;21.40;;;8.52;;
64936;SDS011;51452;47.698;19.050;2023-10-13T14:01:13;18.70;;;7.40;;
64936;SDS011;51452;47.698;19.050;2023-10-13T14:03:50;18.98;;;8.35;;
64936;SDS011;51452;47.698;19.050;2023-10-13T14:06:17;20.40;;;8.02;;
64936;SDS011;51452;47.698;19.050;2023-10-13T14:08:48;19.48;;;8.05;;
64936;SDS011;51452;47.698;19.050;2023-10-13T14:11:16;15.68;;;7.18;;
64936;SDS011;51452;47.698;19.050;2023-10-13T14:14:01;16.02;;;6.85;;
64936;SDS011;51452;47.698;19.050;2023-10-13T14:16:29;15.63;;;6.10;;
64936;SDS011;51452;47.698;19.050;2023-10-13T14:18:58;16.63;;;7.60;;
64936;SDS011;51452;47.698;19.050;2023-10-13T14:21:26;21.13;;;6.65;;
64936;SDS011;51452;47.698;19.050;2023-10-13T14:23:52;14.43;;;6.50;;
64936;SDS011;51452;47.698;19.050;2023-10-13T14:26:18;24.23;;;7.25;;
64936;SDS011;51452;47.698;19.050;2023-10-13T14:28:45;11.50;;;5.82;;
64936;SDS011;51452;47.698;19.050;2023-10-13T14:31:26;24.23;;;6.60;;
64936;SDS011;51452;47.698;19.050;2023-10-13T14:33:52;13.20;;;5.72;;
64936;SDS011;51452;47.698;19.050;2023-10-13T14:36:18;19.15;;;6.63;;
64936;SDS011;51452;47.698;19.050;2023-10-13T14:38:45;16.02;;;6.78;;
64936;SDS011;51452;47.698;19.050;2023-10-13T14:41:14;15.45;;;5.22;;
64936;SDS011;51452;47.698;19.050;2023-10-13T14:43:43;15.43;;;6.80;;
64936;SDS011;51452;47.698;19.050;2023-10-13T14:46:19;15.93;;;6.50;;
64936;SDS011;51452;47.698;19.050;2023-10-13T14:48:48;19.85;;;6.13;;
64936;SDS011;51452;47.698;19.050;2023-10-13T14:51:14;14.05;;;5.95;;
64936;SDS011;51452;47.698;19.050;2023-10-13T14:53:41;19.42;;;6.40;;
64936;SDS011;51452;47.698;19.050;2023-10-13T14:56:11;18.40;;;6.55;;
64936;SDS011;51452;47.698;19.050;2023-10-13T14:58:37;15.18;;;5.88;;
64936;SDS011;51452;47.698;19.050;2023-10-13T15:01:10;16.77;;;6.32;;
64936;SDS011;51452;47.698;19.050;2023-10-13T15:06:15;16.35;;;5.70;;
64936;SDS011;51452;47.698;19.050;2023-10-13T15:08:46;16.15;;;5.93;;
64936;SDS011;51452;47.698;19.050;2023-10-13T15:11:12;15.45;;;6.03;;
64936;SDS011;51452;47.698;19.050;2023-10-13T15:13:39;18.63;;;6.30;;
64936;SDS011;51452;47.698;19.050;2023-10-13T15:16:15;20.33;;;6.97;;
64936;SDS011;51452;47.698;19.050;2023-10-13T15:18:42;25.10;;;8.48;;
64936;SDS011;51452;47.698;19.050;2023-10-13T15:21:11;21.42;;;7.65;;
64936;SDS011;51452;47.698;19.050;2023-10-13T15:23:43;18.08;;;6.55;;
64936;SDS011;51452;47.698;19.050;2023-10-13T15:26:09;11.05;;;6.63;;
64936;SDS011;51452;47.698;19.050;2023-10-13T15:28:35;27.48;;;8.00;;
64936;SDS011;51452;47.698;19.050;2023-10-13T15:31:03;20.83;;;7.75;;
64936;SDS011;51452;47.698;19.050;2023-10-13T15:36:17;16.65;;;6.60;;
64936;SDS011;51452;47.698;19.050;2023-10-13T15:38:44;21.85;;;7.07;;
64936;SDS011;51452;47.698;19.050;2023-10-13T15:41:11;20.10;;;6.60;;
64936;SDS011;51452;47.698;19.050;2023-10-13T15:43:37;22.95;;;7.05;;